Time;durP1;ratioP1;P1;durP2;ratioP2;P2;SDS_P1;SDS_P2;PMS_P1;PMS_P2;Temp;Humidity;BMP_temperature;BMP_pressure;BME280_temperature;BME280_humidity;BME280_pressure;Samples;Min_cycle;Max_cycle;Signal;HPM_P1;HPM_P2
2023/12/28 00:00:27;;;;;;;48.33;19.33;;;;;;;2.02;100.00;98564.56;5133976;27;20057;-72
2023/12/28 00:02:53;;;;;;;39.00;16.95;;;;;;;1.92;100.00;98560.28;5106953;27;20098;-71
2023/12/28 00:05:18;;;;;;;33.80;15.07;;;;;;;1.89;100.00;98566.47;5152233;27;20038;-71
2023/12/28 00:07:44;;;;;;;36.35;16.08;;;;;;;1.85;100.00;98563.84;5130593;27;20043;-71
2023/12/28 00:10:10;;;;;;;34.83;14.32;;;;;;;1.80;100.00;98565.69;5152053;27;20125;-71
2023/12/28 00:12:36;;;;;;;33.28;15.93;;;;;;;1.74;100.00;98571.03;5127733;27;20041;-73
2023/12/28 00:15:01;;;;;;;34.42;16.55;;;;;;;1.80;100.00;98571.84;5116292;27;20026;-72
2023/12/28 00:17:27;;;;;;;30.63;14.52;;;;;;;1.72;100.00;98575.44;5147586;27;20418;-71
2023/12/28 00:19:53;;;;;;;35.83;16.02;;;;;;;1.68;100.00;98587.78;5142237;27;20031;-71
2023/12/28 00:22:18;;;;;;;37.83;15.68;;;;;;;1.71;100.00;98571.94;5127867;27;20037;-71
2023/12/28 00:24:44;;;;;;;47.25;18.35;;;;;;;1.73;100.00;98580.69;5152025;27;20033;-71
2023/12/28 00:27:09;;;;;;;33.95;14.80;;;;;;;1.71;100.00;98581.59;5131414;27;20031;-71
2023/12/28 00:29:38;;;;;;;32.35;14.05;;;;;;;1.67;100.00;98577.25;5133627;27;20028;-72
2023/12/28 00:32:07;;;;;;;29.95;13.25;;;;;;;1.63;100.00;98576.44;5133147;27;20030;-72
2023/12/28 00:34:33;;;;;;;48.42;20.65;;;;;;;1.68;100.00;98582.53;5152037;27;20034;-72
2023/12/28 00:36:58;;;;;;;48.80;21.50;;;;;;;1.71;100.00;98581.59;5151708;27;20401;-73
2023/12/28 00:39:24;;;;;;;38.03;15.93;;;;;;;1.75;100.00;98588.59;5133379;27;20497;-72
2023/12/28 00:41:50;;;;;;;33.53;15.75;;;;;;;1.70;100.00;98579.84;5116039;27;20102;-72
2023/12/28 00:44:15;;;;;;;46.20;17.05;;;;;;;1.71;100.00;98577.22;5151635;27;20056;-72
2023/12/28 00:46:41;;;;;;;36.97;17.27;;;;;;;1.68;100.00;98565.81;5133570;27;20124;-72
2023/12/28 00:49:08;;;;;;;51.08;19.38;;;;;;;1.71;100.00;98581.59;5140045;27;20048;-72
2023/12/28 00:51:33;;;;;;;45.30;19.90;;;;;;;1.61;100.00;98584.34;5116262;27;20027;-72
2023/12/28 00:53:59;;;;;;;40.90;19.10;;;;;;;1.62;100.00;98588.72;5130915;27;20030;-72
2023/12/28 00:56:25;;;;;;;48.20;20.02;;;;;;;1.67;100.00;98596.56;5130656;28;20034;-72
2023/12/28 00:58:50;;;;;;;46.88;20.88;;;;;;;1.69;100.00;98596.59;5129604;28;20027;-72
2023/12/28 01:01:16;;;;;;;50.90;20.75;;;;;;;1.59;100.00;98594.03;5128846;27;20101;-72
2023/12/28 01:03:41;;;;;;;45.40;19.65;;;;;;;1.57;100.00;98597.56;5120546;27;20023;-72
2023/12/28 01:06:07;;;;;;;46.85;19.48;;;;;;;1.40;100.00;98584.53;5124097;28;20048;-72
2023/12/28 01:08:35;;;;;;;40.80;19.05;;;;;;;1.39;100.00;98595.97;5110533;27;20050;-71
2023/12/28 01:11:04;;;;;;;40.85;17.67;;;;;;;1.39;100.00;98598.59;5149354;27;20033;-71
2023/12/28 01:13:30;;;;;;;34.95;16.15;;;;;;;1.36;100.00;98593.34;5143443;27;20030;-71
2023/12/28 01:15:56;;;;;;;27.63;13.38;;;;;;;1.27;100.00;98598.72;5119800;27;20626;-71
2023/12/28 01:18:23;;;;;;;25.50;12.60;;;;;;;1.19;100.00;98582.09;5136741;27;20046;-72
2023/12/28 01:20:49;;;;;;;27.58;12.82;;;;;;;1.07;100.00;98583.09;5137925;27;20031;-72
2023/12/28 01:23:14;;;;;;;30.80;12.40;;;;;;;1.08;100.00;98595.34;5116302;27;20034;-72
2023/12/28 01:25:40;;;;;;;25.52;12.68;;;;;;;1.08;100.00;98583.94;5119399;27;20050;-72
2023/12/28 01:28:05;;;;;;;24.15;11.90;;;;;;;1.13;100.00;98584.78;5136784;27;20099;-71
2023/12/28 01:30:31;;;;;;;21.90;10.43;;;;;;;1.23;100.00;98582.97;5154754;27;20452;-72
2023/12/28 01:32:56;;;;;;;26.92;11.02;;;;;;;1.23;100.00;98589.06;5129957;27;20027;-74
2023/12/28 01:35:22;;;;;;;27.42;11.38;;;;;;;1.24;100.00;98585.56;5133978;27;20053;-72
2023/12/28 01:37:48;;;;;;;26.90;11.80;;;;;;;1.21;100.00;98574.16;5132300;27;20205;-72
2023/12/28 01:40:15;;;;;;;35.00;12.52;;;;;;;1.20;100.00;98568.03;5136017;27;20431;-72
2023/12/28 01:42:41;;;;;;;25.23;12.20;;;;;;;1.16;100.00;98570.72;5154883;27;20045;-72
2023/12/28 01:45:07;;;;;;;27.23;11.68;;;;;;;1.21;100.00;98566.25;5117100;27;20344;-72
2023/12/28 01:47:32;;;;;;;26.30;11.80;;;;;;;1.23;100.00;98570.63;5133930;27;20102;-72
2023/12/28 01:49:58;;;;;;;23.38;11.55;;;;;;;1.12;100.00;98561.94;5136028;27;20014;-72
2023/12/28 01:52:24;;;;;;;25.42;11.20;;;;;;;1.12;100.00;98563.72;5134536;27;20075;-71
2023/12/28 01:54:50;;;;;;;22.38;9.85;;;;;;;1.12;100.00;98575.13;5133874;27;20027;-71
2023/12/28 01:57:15;;;;;;;33.40;11.73;;;;;;;1.08;100.00;98568.13;5115380;27;20087;-72
2023/12/28 01:59:41;;;;;;;25.00;10.60;;;;;;;1.14;100.00;98562.81;5132528;27;20110;-71
2023/12/28 02:02:07;;;;;;;21.55;10.57;;;;;;;1.11;100.00;98557.56;5135939;27;20023;-72
2023/12/28 02:04:33;;;;;;;23.48;11.13;;;;;;;1.04;100.00;98550.63;5135881;27;20026;-72
2023/12/28 02:07:00;;;;;;;20.85;10.27;;;;;;;1.05;100.00;98557.63;5118474;27;20097;-71
2023/12/28 02:09:26;;;;;;;25.15;11.63;;;;;;;1.08;100.00;98550.56;5135501;27;20082;-72
2023/12/28 02:11:55;;;;;;;28.27;12.43;;;;;;;1.08;100.00;98541.78;5118600;27;20030;-72
2023/12/28 02:14:21;;;;;;;23.73;12.07;;;;;;;1.10;100.00;98553.19;5135910;27;20030;-72
2023/12/28 02:17:15;;;;;;;30.25;13.15;;;;;;;1.15;100.00;98550.50;5135543;27;20444;-72
2023/12/28 02:19:49;;;;;;;31.10;13.10;;;;;;;1.12;100.00;98547.91;5132085;27;20110;-72
2023/12/28 02:22:16;;;;;;;31.45;12.70;;;;;;;1.09;100.00;98546.16;5154123;27;20087;-72
2023/12/28 02:25:03;;;;;;;25.67;12.10;;;;;;;1.12;100.00;98535.59;5134779;27;20034;-72
2023/12/28 02:27:29;;;;;;;28.63;12.73;;;;;;;1.09;100.00;98527.72;5154259;27;20030;-72
2023/12/28 02:29:56;;;;;;;28.88;13.10;;;;;;;1.09;100.00;98522.47;5117938;27;20474;-72
2023/12/28 02:32:28;;;;;;;34.38;13.73;;;;;;;1.04;100.00;98514.63;5135280;27;20030;-72
2023/12/28 02:34:59;;;;;;;25.80;13.07;;;;;;;1.02;100.00;98516.38;5117901;27;20094;-72
2023/12/28 02:37:25;;;;;;;32.40;14.00;;;;;;;0.99;100.00;98497.97;5135411;27;20114;-71
2023/12/28 02:39:52;;;;;;;28.08;12.10;;;;;;;1.03;100.00;98509.34;5135101;27;20094;-71
2023/12/28 02:42:18;;;;;;;24.20;11.43;;;;;;;0.99;100.00;98500.59;5129341;27;20446;-71
2023/12/28 02:44:43;;;;;;;29.35;13.48;;;;;;;0.97;100.00;98497.13;5131429;27;20027;-71
2023/12/28 02:47:09;;;;;;;46.03;17.83;;;;;;;0.97;100.00;98499.75;5131604;27;20015;-72
2023/12/28 02:49:34;;;;;;;45.15;20.20;;;;;;;0.93;100.00;98499.78;5131786;27;20031;-72
2023/12/28 02:52:00;;;;;;;49.33;21.00;;;;;;;0.98;100.00;98508.53;5153311;27;20436;-72
2023/12/28 02:54:25;;;;;;;36.88;16.65;;;;;;;0.84;100.00;98505.13;5130703;27;20209;-72
2023/12/28 02:56:51;;;;;;;37.08;16.20;;;;;;;0.79;100.00;98501.66;5134659;27;20015;-72
2023/12/28 02:59:17;;;;;;;37.63;18.23;;;;;;;0.72;100.00;98499.97;5117435;27;20018;-72
2023/12/28 03:01:42;;;;;;;31.60;14.85;;;;;;;0.61;100.00;98507.06;5134258;27;20022;-72
2023/12/28 03:04:09;;;;;;;31.88;14.88;;;;;;;0.58;100.00;98512.34;5153179;27;20335;-72
2023/12/28 03:06:35;;;;;;;33.55;12.85;;;;;;;0.50;100.00;98510.66;5152995;27;20078;-72
2023/12/28 03:09:01;;;;;;;29.23;9.98;;;;;;;0.46;100.00;98502.78;5152916;27;20034;-72
2023/12/28 03:11:26;;;;;;;27.85;11.43;;;;;;;0.43;100.00;98508.09;5134680;27;20027;-72
2023/12/28 03:13:52;;;;;;;28.17;12.60;;;;;;;0.41;100.00;98508.06;5152942;27;20067;-72
2023/12/28 03:16:17;;;;;;;23.92;11.25;;;;;;;0.39;100.00;98507.22;5152955;27;20033;-72
2023/12/28 03:18:43;;;;;;;26.92;10.43;;;;;;;0.40;100.00;98508.09;5134627;27;20030;-72
2023/12/28 03:21:09;;;;;;;33.42;11.70;;;;;;;0.32;100.00;98516.03;5126642;27;20102;-72
2023/12/28 03:23:34;;;;;;;25.02;11.38;;;;;;;0.43;100.00;98527.34;5104987;27;20458;-72
2023/12/28 03:26:01;;;;;;;24.60;12.20;;;;;;;0.43;100.00;98522.09;5132415;27;20466;-72
2023/12/28 03:28:26;;;;;;;33.45;13.70;;;;;;;0.40;100.00;98519.47;5134223;27;20106;-72
2023/12/28 03:30:52;;;;;;;35.70;13.80;;;;;;;0.41;100.00;98515.09;5142853;27;20019;-72
2023/12/28 03:33:17;;;;;;;29.35;12.43;;;;;;;0.47;100.00;98531.72;5131933;27;20023;-72
2023/12/28 03:35:43;;;;;;;27.00;12.48;;;;;;;0.50;100.00;98528.19;5129983;27;20022;-72
2023/12/28 03:38:08;;;;;;;28.77;12.48;;;;;;;0.42;100.00;98525.63;5131085;27;20031;-72
2023/12/28 03:40:34;;;;;;;29.33;12.80;;;;;;;0.39;100.00;98525.63;5113554;27;20026;-72
2023/12/28 03:42:59;;;;;;;32.10;12.23;;;;;;;0.42;100.00;98522.13;5131850;27;20023;-72
2023/12/28 03:45:25;;;;;;;23.08;10.95;;;;;;;0.30;100.00;98541.47;5113049;27;20019;-71
2023/12/28 03:47:51;;;;;;;17.65;9.07;;;;;;;0.22;100.00;98545.88;5131808;27;20149;-71
2023/12/28 03:50:16;;;;;;;23.40;10.43;;;;;;;0.05;100.00;98541.59;5131785;27;20027;-71
2023/12/28 03:52:42;;;;;;;29.50;11.48;;;;;;;-0.03;100.00;98539.00;5130501;27;20119;-71
2023/12/28 03:55:08;;;;;;;27.65;12.85;;;;;;;0.03;100.00;98538.13;5112874;27;20117;-72
2023/12/28 03:57:33;;;;;;;29.42;13.00;;;;;;;-0.04;100.00;98526.75;5131564;27;20023;-72
2023/12/28 03:59:59;;;;;;;26.52;11.57;;;;;;;-0.02;100.00;98540.75;5129843;27;20146;-72
2023/12/28 04:02:27;;;;;;;29.35;12.73;;;;;;;0.02;100.00;98546.88;5130183;27;20027;-72
2023/12/28 04:04:53;;;;;;;26.38;12.15;;;;;;;-0.10;100.00;98539.91;5130247;27;20053;-72
2023/12/28 04:07:18;;;;;;;28.85;12.63;;;;;;;-0.10;100.00;98542.56;5130022;27;20039;-72
2023/12/28 04:09:44;;;;;;;25.75;11.98;;;;;;;-0.13;100.00;98537.31;5131310;27;20118;-72
2023/12/28 04:12:09;;;;;;;25.23;12.52;;;;;;;-0.12;100.00;98528.50;5131168;27;20038;-72
2023/12/28 04:14:35;;;;;;;26.83;12.25;;;;;;;-0.04;100.00;98539.91;5109418;27;20083;-72
2023/12/28 04:17:01;;;;;;;27.13;11.52;;;;;;;-0.03;100.00;98533.72;5133387;27;20042;-72
2023/12/28 04:19:26;;;;;;;23.38;12.05;;;;;;;-0.01;100.00;98539.88;5133326;27;20057;-72
2023/12/28 04:21:52;;;;;;;32.15;13.32;;;;;;;0.04;100.00;98539.84;5133432;27;20026;-72
2023/12/28 04:24:18;;;;;;;29.90;12.80;;;;;;;0.05;100.00;98545.13;5133266;27;20050;-72
2023/12/28 04:26:43;;;;;;;32.67;14.10;;;;;;;0.10;100.00;98543.31;5133226;27;20030;-72
2023/12/28 04:29:09;;;;;;;35.75;14.63;;;;;;;0.12;100.00;98538.94;5151505;27;20438;-72
2023/12/28 04:31:40;;;;;;;36.20;14.80;;;;;;;0.07;100.00;98545.97;5133267;27;20030;-72
2023/12/28 04:34:06;;;;;;;25.40;10.73;;;;;;;0.08;100.00;98536.31;5111691;27;20030;-73
2023/12/28 04:36:31;;;;;;;33.08;14.32;;;;;;;0.13;100.00;98539.78;5132936;27;20283;-73
2023/12/28 04:38:57;;;;;;;34.33;15.20;;;;;;;0.18;100.00;98541.56;5133344;27;20027;-73
2023/12/28 04:41:23;;;;;;;35.13;14.80;;;;;;;0.22;100.00;98545.88;5147946;27;20111;-73
2023/12/28 04:43:48;;;;;;;28.05;13.13;;;;;;;0.18;100.00;98538.03;5129203;27;20025;-72
2023/12/28 04:46:14;;;;;;;29.50;13.93;;;;;;;0.23;100.00;98547.66;5131405;27;20091;-73
2023/12/28 04:48:40;;;;;;;36.05;15.05;;;;;;;0.23;100.00;98545.03;5134540;27;20026;-73
2023/12/28 04:51:05;;;;;;;36.83;16.85;;;;;;;0.15;100.00;98538.06;5155420;27;20123;-71
2023/12/28 04:53:31;;;;;;;42.58;17.92;;;;;;;0.19;100.00;98538.00;5136985;27;20508;-72
2023/12/28 04:55:57;;;;;;;39.70;16.65;;;;;;;0.29;100.00;98546.75;5155455;27;20023;-73
2023/12/28 04:58:23;;;;;;;36.47;15.95;;;;;;;0.28;100.00;98545.84;5136661;27;20026;-72
2023/12/28 05:00:48;;;;;;;35.85;15.15;;;;;;;0.24;100.00;98538.00;5137737;27;20518;-71
2023/12/28 05:03:14;;;;;;;37.38;16.33;;;;;;;0.31;100.00;98544.97;5129322;27;20049;-71
2023/12/28 05:05:40;;;;;;;40.85;18.73;;;;;;;0.30;100.00;98549.38;5119776;27;20022;-73
2023/12/28 05:08:05;;;;;;;41.45;18.55;;;;;;;0.32;100.00;98542.34;5155447;27;20034;-73
2023/12/28 05:10:31;;;;;;;47.50;21.33;;;;;;;0.32;100.00;98549.34;5136819;27;20110;-73
2023/12/28 05:12:57;;;;;;;49.47;22.15;;;;;;;0.32;100.00;98542.34;5136790;27;20022;-73
2023/12/28 05:15:22;;;;;;;58.40;23.83;;;;;;;0.39;100.00;98537.91;5136615;27;20101;-71
2023/12/28 05:17:50;;;;;;;66.22;25.48;;;;;;;0.34;100.00;98531.81;5131428;27;20466;-71
2023/12/28 05:20:16;;;;;;;53.90;22.63;;;;;;;0.31;100.00;98537.06;5134944;27;20126;-72
2023/12/28 05:22:41;;;;;;;59.97;23.95;;;;;;;0.34;100.00;98539.72;5136655;27;20034;-72
2023/12/28 05:25:07;;;;;;;59.97;23.15;;;;;;;0.25;100.00;98521.31;5119426;27;20110;-71
2023/12/28 05:27:32;;;;;;;52.58;23.40;;;;;;;0.31;100.00;98526.53;5143283;27;20482;-72
2023/12/28 05:29:58;;;;;;;59.83;25.63;;;;;;;0.24;100.00;98517.84;5115164;27;20087;-71
2023/12/28 05:32:24;;;;;;;61.72;22.55;;;;;;;0.20;100.00;98536.25;5154658;27;20094;-72
2023/12/28 05:34:50;;;;;;;61.75;27.10;;;;;;;0.06;100.00;98528.47;5136682;27;20034;-73
2023/12/28 05:37:15;;;;;;;54.50;20.65;;;;;;;0.01;100.00;98527.59;5156041;27;20040;-77
2023/12/28 05:39:41;;;;;;;51.55;21.30;;;;;;;-0.13;100.00;98532.03;5119291;27;20090;-78
2023/12/28 05:42:07;;;;;;;39.47;18.25;;;;;;;-0.24;100.00;98536.44;5119284;27;20038;-70
2023/12/28 05:44:32;;;;;;;38.65;17.30;;;;;;;-0.32;100.00;98536.50;5128962;27;20026;-70
2023/12/28 05:46:58;;;;;;;36.45;17.25;;;;;;;-0.36;100.00;98534.75;5135970;27;20018;-77
2023/12/28 05:49:25;;;;;;;35.55;15.63;;;;;;;-0.29;100.00;98540.84;5135956;27;20030;-72
2023/12/28 05:51:50;;;;;;;44.85;16.45;;;;;;;-0.33;100.00;98531.22;5136388;27;20026;-72
2023/12/28 05:54:16;;;;;;;37.70;15.63;;;;;;;-0.34;100.00;98526.88;5117180;27;20615;-72
2023/12/28 05:56:41;;;;;;;39.38;17.45;;;;;;;-0.30;100.00;98544.34;5114814;27;20023;-72
2023/12/28 05:59:07;;;;;;;41.80;17.52;;;;;;;-0.32;100.00;98540.88;5128942;27;20398;-72
2023/12/28 06:01:41;;;;;;;38.40;17.80;;;;;;;-0.27;100.00;98539.09;5106558;27;20505;-71
2023/12/28 06:04:06;;;;;;;42.25;18.13;;;;;;;-0.24;100.00;98549.59;5114947;27;20106;-71
2023/12/28 06:06:32;;;;;;;47.60;19.05;;;;;;;-0.30;100.00;98542.59;5131804;27;20409;-72
2023/12/28 06:08:58;;;;;;;44.92;19.73;;;;;;;-0.33;100.00;98531.22;5115250;27;20027;-72
2023/12/28 06:11:23;;;;;;;65.35;23.00;;;;;;;-0.26;100.00;98538.22;5131934;27;20043;-72
2023/12/28 06:13:49;;;;;;;43.08;19.52;;;;;;;-0.20;100.00;98540.81;5135590;27;20023;-72
2023/12/28 06:16:15;;;;;;;61.05;21.38;;;;;;;-0.17;100.00;98548.69;5136648;27;20114;-72
2023/12/28 06:18:40;;;;;;;57.75;23.63;;;;;;;-0.18;100.00;98539.06;5133120;27;20104;-71
2023/12/28 06:21:08;;;;;;;48.22;20.58;;;;;;;-0.14;100.00;98546.94;5132260;27;20031;-73
2023/12/28 06:23:33;;;;;;;47.65;20.77;;;;;;;-0.26;100.00;98549.63;5131888;27;20038;-72
2023/12/28 06:26:05;;;;;;;71.03;26.17;;;;;;;-0.29;100.00;98556.63;5118478;27;20027;-73
2023/12/28 06:28:31;;;;;;;;;;;;;;;-0.28;100.00;98551.38;5133769;27;20030;-73
2023/12/28 06:31:00;;;;;;;102.38;38.88;;;;;;;-0.28;100.00;98547.88;5132349;27;19911;-72
2023/12/28 06:33:27;;;;;;;109.63;41.10;;;;;;;-0.24;100.00;98545.22;5118664;27;20183;-72
2023/12/28 06:35:53;;;;;;;88.38;34.53;;;;;;;-0.23;100.00;98539.09;5135532;27;20018;-72
2023/12/28 06:38:18;;;;;;;64.95;27.75;;;;;;;-0.13;100.00;98530.28;5153879;27;20429;-72
2023/12/28 06:40:44;;;;;;;46.67;22.10;;;;;;;-0.04;100.00;98539.91;5135072;27;20143;-72
2023/12/28 06:43:09;;;;;;;51.97;22.77;;;;;;;0.04;100.00;98545.09;5135306;27;20421;-73
2023/12/28 06:45:38;;;;;;;53.33;24.05;;;;;;;0.09;100.00;98544.22;5134463;27;20022;-73
2023/12/28 06:48:04;;;;;;;84.68;32.00;;;;;;;0.20;100.00;98544.16;5135178;27;20371;-74
2023/12/28 06:50:30;;;;;;;83.00;32.10;;;;;;;0.27;100.00;98546.75;5134716;27;20030;-73
2023/12/28 06:52:55;;;;;;;75.75;30.38;;;;;;;0.93;100.00;98558.59;5117960;27;20403;-74
2023/12/28 06:55:21;;;;;;;93.63;37.55;;;;;;;2.10;100.00;98555.66;5153228;27;20026;-73
2023/12/28 06:57:46;;;;;;;101.32;40.38;;;;;;;3.73;100.00;98544.28;5115302;27;20030;-73
2023/12/28 07:00:13;;;;;;;105.55;42.10;;;;;;;5.14;100.00;98517.31;5129745;27;20035;-74
2023/12/28 07:02:38;;;;;;;97.15;39.42;;;;;;;6.47;100.00;98505.69;5133614;27;20026;-76
2023/12/28 07:05:04;;;;;;;118.55;46.75;;;;;;;6.75;100.00;98496.84;5147163;27;20114;-74
2023/12/28 07:07:30;;;;;;;109.68;45.13;;;;;;;7.15;100.00;98492.00;5136897;27;20542;-72
2023/12/28 07:09:56;;;;;;;84.38;36.20;;;;;;;7.20;100.00;98487.38;5112397;28;20110;-74
2023/12/28 07:12:22;;;;;;;88.75;36.30;;;;;;;7.40;100.00;98478.72;5126734;27;20486;-73
2023/12/28 07:14:47;;;;;;;53.78;27.23;;;;;;;7.80;100.00;98480.84;5131903;27;20540;-73
2023/12/28 07:17:17;;;;;;;71.88;30.13;;;;;;;8.06;100.00;98467.44;5096710;27;20031;-73
2023/12/28 07:19:43;;;;;;;46.53;22.85;;;;;;;8.20;100.00;98473.16;5132117;27;20057;-73
2023/12/28 07:22:08;;;;;;;47.53;23.70;;;;;;;8.37;100.00;98460.06;5109107;28;20403;-74
2023/12/28 07:24:34;;;;;;;49.35;24.70;;;;;;;8.48;100.00;98459.66;5093395;28;20032;-73
2023/12/28 07:27:00;;;;;;;51.40;26.83;;;;;;;8.41;100.00;98467.03;5093163;28;20024;-75
2023/12/28 07:29:25;;;;;;;65.18;24.88;;;;;;;8.57;100.00;98454.84;5093291;28;20088;-73
2023/12/28 07:31:51;;;;;;;46.22;24.88;;;;;;;8.44;100.00;98471.38;5104383;27;20366;-74
2023/12/28 07:34:17;;;;;;;67.55;31.58;;;;;;;8.44;100.00;98468.69;5113412;27;20056;-75
2023/12/28 07:36:43;;;;;;;60.58;27.80;;;;;;;9.80;95.25;98469.22;5112999;27;20069;-73
2023/12/28 07:39:10;;;;;;;60.95;29.75;;;;;;;10.21;85.83;98463.84;5111705;27;20031;-73
2023/12/28 07:41:36;;;;;;;92.38;34.10;;;;;;;10.92;77.72;98456.91;5095589;27;20035;-72
2023/12/28 07:44:08;;;;;;;82.60;33.33;;;;;;;10.39;78.90;98443.41;5092703;27;20056;-71
2023/12/28 07:46:36;;;;;;;77.45;36.28;;;;;;;10.82;78.63;98448.44;5092102;28;20027;-71
2023/12/28 07:49:02;;;;;;;76.70;38.85;;;;;;;11.70;71.47;98446.69;5110957;28;20485;-71
2023/12/28 07:51:27;;;;;;;78.68;41.67;;;;;;;11.77;71.02;98440.94;5086970;28;20132;-73
2023/12/28 07:53:53;;;;;;;88.85;41.55;;;;;;;12.02;69.07;98429.78;5085451;27;20477;-73
2023/12/28 07:56:19;;;;;;;77.22;40.50;;;;;;;12.21;64.93;98429.66;5099021;27;20058;-73
2023/12/28 07:58:44;;;;;;;82.40;39.53;;;;;;;11.92;68.26;98445.50;5113057;27;20027;-71
2023/12/28 08:01:13;;;;;;;73.75;34.67;;;;;;;11.79;71.62;98454.25;5131254;27;20549;-76
2023/12/28 08:03:38;;;;;;;79.38;37.25;;;;;;;12.52;67.76;98434.22;5103902;28;20448;-74
2023/12/28 08:06:04;;;;;;;78.75;35.72;;;;;;;12.60;67.96;98443.56;5122341;27;20047;-74
2023/12/28 08:08:30;;;;;;;80.90;35.10;;;;;;;13.46;63.22;98437.69;5113395;27;20035;-73
2023/12/28 08:10:56;;;;;;;72.18;33.03;;;;;;;13.90;60.37;98424.28;5111587;27;20065;-72
2023/12/28 08:13:22;;;;;;;79.47;40.10;;;;;;;13.38;60.18;98426.56;5092583;28;20120;-72
2023/12/28 08:15:47;;;;;;;86.47;45.10;;;;;;;13.78;58.61;98425.03;5109042;28;20027;-72
2023/12/28 08:18:13;;;;;;;91.63;45.80;;;;;;;12.85;60.57;98424.25;5092152;28;20054;-73
2023/12/28 08:20:38;;;;;;;85.03;44.90;;;;;;;13.57;61.43;98430.72;5118763;28;20417;-72
2023/12/28 08:23:04;;;;;;;94.22;49.55;;;;;;;14.30;57.63;98412.78;5111944;28;20031;-73
2023/12/28 08:25:30;;;;;;;99.43;50.38;;;;;;;14.81;55.33;98416.66;5082034;28;20027;-73
2023/12/28 08:27:55;;;;;;;113.75;57.47;;;;;;;13.78;57.65;98417.78;5092342;28;20027;-73
2023/12/28 08:30:21;;;;;;;113.22;56.25;;;;;;;14.03;58.02;98415.34;5092320;28;20034;-73
2023/12/28 08:32:47;;;;;;;121.32;63.42;;;;;;;14.71;55.90;98406.56;5092351;28;20019;-72
2023/12/28 08:35:13;;;;;;;109.13;56.30;;;;;;;13.65;57.68;98427.59;5096169;28;20076;-72
2023/12/28 08:37:39;;;;;;;112.82;58.72;;;;;;;14.13;58.31;98416.50;5112677;28;20032;-72
2023/12/28 08:40:05;;;;;;;122.65;61.75;;;;;;;13.86;58.75;98420.03;5112063;28;20046;-71
2023/12/28 08:42:31;;;;;;;121.10;60.40;;;;;;;13.11;64.22;98425.44;5091854;28;20472;-72
2023/12/28 08:44:56;;;;;;;116.03;55.08;;;;;;;12.87;67.16;98415.16;5111675;28;20110;-72
2023/12/28 08:47:22;;;;;;;112.70;55.00;;;;;;;13.78;63.03;98401.66;5123718;28;20082;-72
2023/12/28 08:49:47;;;;;;;108.95;55.47;;;;;;;15.41;57.39;98381.22;5112050;28;20088;-72
2023/12/28 08:52:13;;;;;;;92.63;45.63;;;;;;;15.98;54.90;98370.94;5112058;28;20119;-72
2023/12/28 08:54:40;;;;;;;83.78;42.75;;;;;;;16.04;54.14;98367.81;5112372;28;20497;-72
2023/12/28 08:57:06;;;;;;;65.40;38.67;;;;;;;16.69;52.65;98369.38;5112224;28;20056;-72
2023/12/28 08:59:36;;;;;;;77.10;39.45;;;;;;;16.51;53.07;98359.00;5130604;28;20019;-72
2023/12/28 09:02:01;;;;;;;63.80;38.00;;;;;;;17.10;52.15;98368.13;5116042;28;20024;-73
2023/12/28 09:04:27;;;;;;;70.57;40.03;;;;;;;18.42;48.84;98334.25;5110937;28;20026;-73
2023/12/28 09:06:53;;;;;;;93.43;53.92;;;;;;;18.04;47.46;98333.75;5101745;28;20047;-73
2023/12/28 09:09:18;;;;;;;108.03;60.13;;;;;;;18.41;47.17;98340.66;5094521;28;20031;-72
2023/12/28 09:11:44;;;;;;;104.80;57.33;;;;;;;18.29;46.78;98333.50;5111644;28;20027;-71
2023/12/28 09:14:10;;;;;;;102.00;59.53;;;;;;;17.71;46.86;98338.16;5110863;28;20046;-73
2023/12/28 09:16:35;;;;;;;120.13;67.13;;;;;;;17.21;49.29;98333.88;5112148;28;20023;-73
2023/12/28 09:19:01;;;;;;;109.88;64.30;;;;;;;18.34;46.81;98323.16;5111973;28;20023;-73
2023/12/28 09:21:27;;;;;;;117.03;66.32;;;;;;;19.05;45.42;98316.38;5094838;28;20494;-73
2023/12/28 09:23:52;;;;;;;116.47;62.25;;;;;;;18.22;46.62;98310.59;5094936;28;20019;-71
2023/12/28 09:26:18;;;;;;;119.60;62.13;;;;;;;18.36;46.63;98302.25;5111803;28;20023;-71
2023/12/28 09:28:44;;;;;;;116.75;60.88;;;;;;;18.65;45.91;98289.88;5104556;28;20033;-71
2023/12/28 09:31:09;;;;;;;99.85;58.97;;;;;;;19.13;45.28;98282.22;5111919;28;20096;-71
2023/12/28 09:33:35;;;;;;;109.15;60.20;;;;;;;19.36;44.27;98272.97;5095038;28;20027;-71
2023/12/28 09:36:03;;;;;;;106.50;60.25;;;;;;;19.43;44.27;98276.06;5098090;27;20035;-70
2023/12/28 09:38:29;;;;;;;112.82;62.88;;;;;;;19.56;44.11;98252.28;5098462;27;20033;-71
2023/12/28 09:40:58;;;;;;;115.10;62.30;;;;;;;19.45;44.42;98263.22;5108678;27;20031;-71
2023/12/28 09:43:25;;;;;;;96.05;56.42;;;;;;;19.26;44.93;98265.75;5115606;27;20106;-70
2023/12/28 09:45:52;;;;;;;93.40;47.03;;;;;;;18.83;46.21;98266.66;5115396;27;20012;-71
2023/12/28 09:48:19;;;;;;;80.85;47.55;;;;;;;18.71;46.78;98259.56;5115169;27;20434;-71
2023/12/28 09:50:55;;;;;;;83.65;48.22;;;;;;;19.49;45.01;98248.38;5098223;27;20073;-71
2023/12/28 09:53:24;;;;;;;78.93;48.47;;;;;;;20.63;43.51;98238.16;5098189;27;20027;-71
2023/12/28 09:55:51;;;;;;;92.57;50.35;;;;;;;20.22;43.34;98234.59;5115639;27;20026;-71
2023/12/28 09:58:21;;;;;;;105.97;52.20;;;;;;;19.81;43.76;98229.28;5115073;27;20453;-71
2023/12/28 10:00:48;;;;;;;97.38;58.47;;;;;;;19.68;44.00;98229.50;5114975;27;20031;-71
2023/12/28 10:03:15;;;;;;;106.10;58.17;;;;;;;20.05;43.74;98216.22;5097858;27;20035;-73
2023/12/28 10:05:42;;;;;;;97.07;56.88;;;;;;;21.50;41.93;98201.78;5098182;27;20451;-71
2023/12/28 10:08:08;;;;;;;95.50;57.92;;;;;;;21.91;40.73;98193.22;5152891;27;20395;-72
2023/12/28 10:10:34;;;;;;;66.70;41.05;;;;;;;22.48;39.10;98175.69;5134174;27;20387;-72
2023/12/28 10:13:00;;;;;;;63.43;39.87;;;;;;;21.06;41.25;98195.94;5152827;27;20399;-71
2023/12/28 10:15:25;;;;;;;60.90;38.23;;;;;;;20.30;42.34;98187.75;5152305;27;20395;-71
2023/12/28 10:17:54;;;;;;;85.82;51.83;;;;;;;20.85;42.26;98181.66;5126488;27;20865;-72
2023/12/28 10:20:19;;;;;;;82.95;50.47;;;;;;;21.90;40.54;98172.41;5130581;27;20396;-72
2023/12/28 10:22:45;;;;;;;63.05;35.85;;;;;;;21.10;40.83;98163.91;5116804;27;20381;-72
2023/12/28 10:25:11;;;;;;;56.47;36.47;;;;;;;21.04;41.32;98167.19;5133622;27;20387;-72
2023/12/28 10:27:44;;;;;;;63.35;37.47;;;;;;;22.52;39.34;98162.59;5122139;27;20898;-71
2023/12/28 10:30:10;;;;;;;66.88;42.45;;;;;;;24.41;37.03;98150.81;5130588;27;20404;-71
2023/12/28 10:32:40;;;;;;;66.95;44.70;;;;;;;25.14;35.68;98140.84;5113062;27;20394;-72
2023/12/28 10:35:05;;;;;;;80.10;49.78;;;;;;;24.53;35.91;98137.69;5130101;27;20409;-72
2023/12/28 10:37:35;;;;;;;71.20;46.33;;;;;;;23.65;36.86;98136.31;5129992;27;20405;-72
2023/12/28 10:40:06;;;;;;;76.78;49.28;;;;;;;24.74;35.42;98125.22;5130301;27;20382;-72
2023/12/28 10:42:33;;;;;;;76.60;48.63;;;;;;;24.67;35.24;98120.63;5116168;27;20909;-72
2023/12/28 10:45:05;;;;;;;71.05;45.63;;;;;;;24.55;35.53;98113.78;5116440;27;20510;-72
2023/12/28 10:47:38;;;;;;;77.13;45.08;;;;;;;23.58;36.45;98116.09;5131575;27;20462;-71
2023/12/28 10:50:05;;;;;;;56.20;34.05;;;;;;;23.63;35.91;98113.72;5122831;27;20390;-72
2023/12/28 10:52:35;;;;;;;61.38;38.42;;;;;;;25.14;34.68;98105.25;5128653;27;20781;-72
2023/12/28 10:55:15;;;;;;;66.90;44.17;;;;;;;24.87;34.61;98093.78;5129925;27;20432;-72
2023/12/28 10:58:13;;;;;;;70.85;46.17;;;;;;;24.78;34.60;98085.56;5129927;27;20394;-72
2023/12/28 11:00:46;;;;;;;61.50;40.10;;;;;;;25.51;33.55;98073.69;5128450;27;20439;-72
2023/12/28 11:03:12;;;;;;;63.60;39.95;;;;;;;26.81;32.59;98072.03;5130031;27;20394;-72
2023/12/28 11:05:39;;;;;;;71.67;43.50;;;;;;;26.44;32.64;98070.03;5112428;27;20490;-72
2023/12/28 11:08:06;;;;;;;66.07;44.22;;;;;;;26.35;32.63;98062.91;5133326;27;20756;-72
2023/12/28 11:10:33;;;;;;;92.28;48.58;;;;;;;27.24;31.76;98053.94;5151575;27;20760;-72
2023/12/28 11:12:59;;;;;;;72.32;41.15;;;;;;;26.86;31.35;98040.22;5133372;27;20761;-72